createdAt,value
2023-05-01T00:00:11.752Z,74.58
2023-05-01T00:05:34.656Z,74.39
2023-05-01T00:10:37.982Z,75.25
2023-05-01T00:15:42.359Z,75.55
2023-05-01T00:20:45.253Z,75.62
2023-05-01T00:25:48.033Z,76.22
2023-05-01T00:30:50.877Z,76.47
2023-05-01T00:35:53.688Z,76.65
2023-05-01T00:40:56.460Z,77.07
2023-05-01T00:45:59.520Z,77.09
2023-05-01T00:51:06.127Z,77.59
2023-05-01T00:56:11.165Z,78.00
2023-05-01T01:01:14.142Z,77.94
2023-05-01T01:06:56.106Z,77.92
2023-05-01T01:12:06.752Z,77.69
2023-05-01T01:17:45.626Z,77.42
2023-05-01T01:23:01.921Z,77.41
2023-05-01T01:28:30.977Z,77.36
2023-05-01T01:33:56.404Z,77.53
2023-05-01T01:39:14.979Z,77.84
2023-05-01T01:44:27.954Z,78.12
2023-05-01T01:49:32.073Z,78.44
2023-05-01T01:54:42.457Z,78.95
2023-05-01T01:59:47.457Z,78.80
2023-05-01T02:04:52.514Z,78.51
2023-05-01T02:09:57.377Z,78.49
2023-05-01T02:15:01.957Z,78.54
2023-05-01T02:20:06.501Z,78.83
2023-05-01T02:25:12.048Z,78.85
2023-05-01T02:30:15.187Z,78.68
2023-05-01T02:35:18.328Z,78.88
2023-05-01T02:40:22.153Z,79.17
2023-05-01T02:45:26.085Z,79.26
2023-05-01T02:50:29.831Z,79.36
2023-05-01T02:55:33.633Z,79.52
2023-05-01T03:00:36.837Z,79.78
2023-05-01T03:05:40.260Z,79.77
2023-05-01T03:10:43.437Z,79.77
2023-05-01T03:15:46.677Z,80.02
2023-05-01T03:20:57.275Z,80.39
2023-05-01T03:26:00.026Z,80.54
2023-05-01T03:31:02.880Z,80.65
2023-05-01T03:36:06.179Z,80.31
2023-05-01T03:41:10.106Z,80.20
2023-05-01T03:46:13.455Z,80.23
2023-05-01T03:51:17.376Z,80.35
2023-05-01T03:56:20.216Z,80.31
2023-05-01T04:01:23.054Z,80.19
2023-05-01T04:06:26.409Z,80.24
2023-05-01T04:11:29.195Z,80.25
2023-05-01T04:16:32.228Z,80.15
2023-05-01T04:21:35.228Z,80.07
2023-05-01T04:26:39.153Z,79.71
2023-05-01T04:31:43.429Z,79.47
2023-05-01T04:36:46.327Z,79.20
2023-05-01T04:41:49.199Z,78.50
2023-05-01T04:46:54.380Z,77.79
2023-05-01T04:51:57.194Z,70.74
2023-05-01T04:56:59.889Z,66.50
2023-05-01T05:02:02.809Z,66.10
2023-05-01T05:07:05.957Z,65.97
2023-05-01T05:12:08.759Z,64.22
2023-05-01T05:17:11.644Z,64.31
2023-05-01T05:22:14.497Z,64.77
2023-05-01T05:27:17.721Z,63.96
2023-05-01T05:32:20.639Z,63.14
2023-05-01T05:37:25.571Z,62.16
2023-05-01T05:42:28.401Z,61.90
2023-05-01T05:47:31.185Z,61.20
2023-05-01T05:52:33.943Z,60.89
2023-05-01T05:57:37.938Z,60.49
2023-05-01T06:02:40.848Z,60.05
2023-05-01T06:07:43.733Z,58.97
2023-05-01T06:12:55.071Z,58.70
2023-05-01T06:18:01.404Z,58.24
2023-05-01T06:23:04.374Z,52.48
2023-05-01T06:28:07.334Z,43.98
2023-05-01T06:33:10.840Z,37.61
2023-05-01T06:38:13.692Z,32.60
2023-05-01T06:43:16.471Z,31.08
2023-05-01T06:48:19.293Z,29.11
2023-05-01T06:53:22.059Z,26.82
2023-05-01T06:58:24.844Z,24.00
2023-05-01T07:03:27.807Z,23.84
2023-05-01T07:08:30.896Z,23.59
2023-05-01T07:13:34.035Z,24.48
2023-05-01T07:18:38.368Z,27.61
2023-05-01T07:23:41.367Z,30.93
2023-05-01T07:28:44.112Z,30.14
2023-05-01T07:33:47.707Z,28.24
2023-05-01T07:38:50.683Z,26.43
2023-05-01T07:43:54.082Z,26.03
2023-05-01T07:48:56.893Z,25.31
2023-05-01T07:54:04.737Z,25.67
2023-05-01T07:59:07.793Z,25.56
2023-05-01T08:04:11.087Z,25.86
2023-05-01T08:09:18.065Z,25.88
2023-05-01T08:14:20.872Z,26.12
2023-05-01T08:19:24.522Z,25.99
2023-05-01T08:24:27.656Z,26.59
2023-05-01T08:29:30.833Z,26.64
2023-05-01T08:34:34.524Z,26.97
2023-05-01T08:39:37.998Z,27.24
2023-05-01T08:44:41.267Z,28.05
2023-05-01T08:49:46.881Z,29.14
2023-05-01T08:54:54.602Z,28.90
2023-05-01T08:59:59.060Z,29.29
2023-05-01T09:05:05.340Z,29.86
2023-05-01T09:10:08.389Z,30.77
2023-05-01T09:15:11.816Z,31.51
2023-05-01T09:20:14.931Z,31.68
2023-05-01T09:25:20.780Z,31.72
2023-05-01T09:30:30.508Z,33.17
2023-05-01T09:35:52.444Z,35.33
2023-05-01T09:41:03.437Z,35.50
2023-05-01T09:46:12.954Z,35.84
2023-05-01T09:51:33.153Z,35.80
2023-05-01T09:56:47.969Z,36.03
2023-05-01T10:01:51.736Z,35.81
2023-05-01T10:06:55.020Z,34.95
2023-05-01T10:11:59.302Z,35.70
2023-05-01T10:17:19.402Z,36.37
2023-05-01T10:22:24.821Z,36.58
2023-05-01T10:27:31.422Z,37.68
2023-05-01T10:32:37.672Z,37.93
2023-05-01T10:38:02.301Z,36.97
2023-05-01T10:43:31.199Z,36.72
2023-05-01T10:48:44.481Z,37.68
2023-05-01T10:53:51.566Z,36.25
2023-05-01T10:59:00.183Z,36.47
2023-05-01T11:04:25.286Z,37.08
2023-05-01T11:09:42.751Z,36.82
2023-05-01T11:14:54.706Z,37.75
2023-05-01T11:19:58.856Z,37.16
2023-05-01T11:25:06.105Z,37.21
2023-05-01T11:30:09.981Z,36.47
2023-05-01T11:35:32.678Z,36.01
2023-05-01T11:40:36.164Z,36.03
2023-05-01T11:45:39.327Z,36.88
2023-05-01T11:50:44.196Z,36.31
2023-05-01T11:55:47.175Z,36.56
2023-05-01T12:00:52.284Z,35.99
2023-05-01T12:05:55.210Z,34.97
2023-05-01T12:10:58.670Z,34.72
2023-05-01T12:16:03.424Z,34.57
2023-05-01T12:21:16.859Z,34.76
2023-05-01T12:26:25.945Z,34.20
2023-05-01T12:31:30.205Z,34.29
2023-05-01T12:36:35.805Z,33.76
2023-05-01T12:41:39.795Z,33.60
2023-05-01T12:46:43.626Z,33.59
2023-05-01T12:51:51.986Z,34.00
2023-05-01T12:57:06.685Z,33.71
2023-05-01T13:02:12.547Z,34.10
2023-05-01T13:07:18.012Z,34.45
2023-05-01T13:12:21.093Z,34.58
2023-05-01T13:17:30.991Z,35.27
2023-05-01T13:22:41.962Z,35.40
2023-05-01T13:27:52.648Z,35.55
2023-05-01T13:32:55.534Z,34.93
2023-05-01T13:38:01.357Z,35.66
2023-05-01T13:43:04.097Z,36.03
2023-05-01T13:48:06.911Z,36.15
2023-05-01T13:53:11.407Z,35.90
2023-05-01T13:58:14.348Z,36.53
2023-05-01T14:03:18.977Z,36.33
2023-05-01T14:08:27.881Z,36.39
2023-05-01T14:13:31.292Z,36.73
2023-05-01T14:18:35.336Z,35.57
2023-05-01T14:23:42.285Z,34.87
2023-05-01T14:28:48.204Z,35.11
2023-05-01T14:33:56.677Z,35.91
2023-05-01T14:39:01.100Z,35.73
2023-05-01T14:44:06.056Z,35.75
2023-05-01T14:49:11.785Z,35.74
2023-05-01T14:54:15.402Z,35.89
2023-05-01T14:59:19.453Z,35.19
2023-05-01T15:04:24.904Z,35.63
2023-05-01T15:09:27.764Z,35.41
2023-05-01T15:14:30.629Z,35.67
2023-05-01T15:19:33.635Z,35.01
2023-05-01T15:24:36.738Z,35.26
2023-05-01T15:29:39.768Z,34.90
2023-05-01T15:34:43.357Z,34.64
2023-05-01T15:39:46.244Z,34.67
2023-05-01T15:44:49.118Z,34.99
2023-05-01T15:49:51.896Z,34.36
2023-05-01T15:54:56.445Z,34.54
2023-05-01T15:59:59.535Z,34.66
2023-05-01T16:05:03.889Z,34.59
2023-05-01T16:10:09.948Z,34.69
2023-05-01T16:15:15.221Z,34.30
2023-05-01T16:20:18.228Z,34.71
2023-05-01T16:25:22.209Z,34.79
2023-05-01T16:30:28.252Z,34.90
2023-05-01T16:35:31.941Z,34.73
2023-05-01T16:40:37.255Z,34.87
2023-05-01T16:45:40.537Z,34.84
2023-05-01T16:50:43.358Z,34.96
2023-05-01T16:55:46.427Z,35.43
2023-05-01T17:00:49.210Z,35.59
2023-05-01T17:05:52.225Z,36.22
2023-05-01T17:10:55.187Z,36.48
2023-05-01T17:15:58.669Z,36.65
2023-05-01T17:21:01.836Z,36.79
2023-05-01T17:26:05.499Z,37.31
2023-05-01T17:31:08.748Z,37.79
2023-05-01T17:36:11.942Z,38.25
2023-05-01T17:41:18.045Z,38.75
2023-05-01T17:46:21.022Z,39.23
2023-05-01T17:51:26.568Z,39.73
2023-05-01T17:56:30.910Z,40.25
2023-05-01T18:01:33.854Z,40.45
2023-05-01T18:06:37.452Z,40.96
2023-05-01T18:11:43.065Z,41.63
2023-05-01T18:16:46.696Z,42.24
2023-05-01T18:21:49.572Z,42.87
2023-05-01T18:26:52.346Z,43.36
2023-05-01T18:31:55.737Z,43.62
2023-05-01T18:36:58.621Z,43.97
2023-05-01T18:42:03.638Z,44.35
2023-05-01T18:47:07.008Z,44.40
2023-05-01T18:52:09.825Z,44.69
2023-05-01T18:57:12.659Z,45.09
2023-05-01T19:02:15.702Z,45.47
2023-05-01T19:07:20.209Z,45.74
2023-05-01T19:12:23.268Z,46.28
2023-05-01T19:17:26.202Z,46.57
2023-05-01T19:22:30.338Z,46.88
2023-05-01T19:27:33.554Z,47.13
2023-05-01T19:32:36.868Z,47.20
2023-05-01T19:37:39.972Z,47.59
2023-05-01T19:42:44.844Z,47.64
2023-05-01T19:47:47.697Z,47.88
2023-05-01T19:52:51.223Z,47.93
2023-05-01T19:57:54.080Z,48.11
2023-05-01T20:02:56.938Z,48.36
2023-05-01T20:08:02.427Z,48.75
2023-05-01T20:13:10.806Z,48.94
2023-05-01T20:18:16.922Z,49.37
2023-05-01T20:23:23.241Z,49.26
2023-05-01T20:28:27.221Z,49.38
2023-05-01T20:33:30.316Z,49.58
2023-05-01T20:38:33.187Z,49.89
2023-05-01T20:43:36.406Z,50.37
2023-05-01T20:48:39.183Z,50.61
2023-05-01T20:53:41.928Z,50.79
2023-05-01T20:58:45.308Z,51.39
2023-05-01T21:03:48.178Z,51.60
2023-05-01T21:08:51.669Z,51.98
2023-05-01T21:13:56.072Z,52.59
2023-05-01T21:18:58.849Z,52.63
2023-05-01T21:24:01.688Z,53.05
2023-05-01T21:29:04.574Z,53.12
2023-05-01T21:34:08.938Z,53.61
2023-05-01T21:39:14.646Z,53.67
2023-05-01T21:44:17.922Z,53.76
2023-05-01T21:49:23.244Z,53.91
2023-05-01T21:54:29.428Z,54.14
2023-05-01T21:59:36.257Z,54.25
2023-05-01T22:04:39.842Z,54.49
2023-05-01T22:09:43.050Z,54.61
2023-05-01T22:14:47.697Z,54.80
2023-05-01T22:19:51.721Z,54.84
2023-05-01T22:24:54.716Z,54.73
2023-05-01T22:29:58.484Z,55.20
2023-05-01T22:35:01.624Z,54.79
2023-05-01T22:40:06.876Z,54.85
2023-05-01T22:45:10.585Z,54.74
2023-05-01T22:50:13.526Z,54.57
2023-05-01T22:55:16.625Z,54.62
2023-05-01T23:00:19.804Z,54.70
2023-05-01T23:05:22.630Z,54.48
2023-05-01T23:10:27.512Z,54.49
2023-05-01T23:15:30.364Z,54.55
2023-05-01T23:20:39.977Z,54.60
2023-05-01T23:25:48.915Z,54.54
2023-05-01T23:31:00.366Z,54.74
2023-05-01T23:36:04.006Z,54.39
2023-05-01T23:41:10.111Z,54.38
2023-05-01T23:46:13.038Z,54.88
2023-05-01T23:51:15.881Z,54.71
2023-05-01T23:56:18.739Z,54.88
